Roscrea, Ireland
Current Conditions -  °F | °C
As of 10:00 AM on Tuesday 21 Oct 2014 (Local Time) from EINN Reporting Station
Few Clouds Few Clouds  
Wind Chill: 50°   Ceiling: Unl
Heat Index: 50°   Visibility: 6mi
Dew Point: 41°   Wind: 24mph
Humidity: 71%   Direction: 290°WNW
Pressure: 29.91"   Gusts: 39mph
Location:  52.96°N, 7.81°W
Report Text: EINN 210900Z 29021G34KT 9999 FEW020CB 10/05 Q1013 RESHRA NOSIG
Loading
Personal Weather Stations






























Interactive Weather Map
Tropical Storm Tracking
New forecast layout! Learn more

10-Day Weather Forecast

Advertisements
Track Severe Weather on mobile